Time;durP1;ratioP1;P1;durP2;ratioP2;P2;SDS_P1;SDS_P2;PMS_P1;PMS_P2;Temp;Humidity;BMP_temperature;BMP_pressure;BME280_temperature;BME280_humidity;BME280_pressure;Samples;Min_cycle;Max_cycle;Signal;HPM_P1;HPM_P2
2021/03/24 00:02:05;;;;;;;7.20;3.95;;;;;;;0.47;74.52;100105.45;1800883;79;20950;-76
2021/03/24 00:04:35;;;;;;;5.22;4.08;;;;;;;0.54;74.54;100107.00;1785906;79;21474;-76
2021/03/24 00:07:04;;;;;;;4.75;3.85;;;;;;;0.59;74.40;100109.00;1800876;79;21368;-75
2021/03/24 00:09:33;;;;;;;5.30;3.87;;;;;;;0.64;74.12;100108.42;1786271;79;20953;-76
2021/03/24 00:12:01;;;;;;;6.42;4.97;;;;;;;0.67;74.10;100110.06;1818501;79;20990;-76
2021/03/24 00:14:29;;;;;;;4.22;3.80;;;;;;;0.64;73.94;100105.00;1786182;80;21016;-76
2021/03/24 00:16:57;;;;;;;4.95;3.83;;;;;;;0.59;74.10;100099.52;1800919;79;21025;-76
2021/03/24 00:19:26;;;;;;;3.83;3.50;;;;;;;0.55;74.29;100097.06;1786317;79;21339;-77
2021/03/24 00:21:56;;;;;;;4.75;4.25;;;;;;;0.54;74.45;100101.84;1816376;79;20946;-76
2021/03/24 00:24:24;;;;;;;5.85;4.20;;;;;;;0.52;74.51;100094.13;1786344;80;21358;-78
2021/03/24 00:26:54;;;;;;;9.13;5.80;;;;;;;0.51;74.55;100101.90;1800798;79;21108;-77
2021/03/24 00:29:22;;;;;;;5.62;4.40;;;;;;;0.46;74.53;100099.45;1786251;79;20894;-76
2021/03/24 00:31:50;;;;;;;7.58;5.00;;;;;;;0.46;74.83;100101.19;1818547;79;22269;-77
2021/03/24 00:34:19;;;;;;;7.10;5.60;;;;;;;0.46;74.72;100099.90;1818401;79;21046;-76
2021/03/24 00:36:47;;;;;;;5.00;3.85;;;;;;;0.45;74.85;100105.50;1786389;79;20996;-79
2021/03/24 00:39:17;;;;;;;7.58;3.42;;;;;;;0.50;75.03;100106.67;1800730;79;20918;-76
2021/03/24 00:41:45;;;;;;;4.75;4.22;;;;;;;0.57;75.15;100103.03;1786330;79;21359;-76
2021/03/24 00:44:15;;;;;;;3.98;3.55;;;;;;;0.65;74.95;100108.84;1800744;79;21495;-77
2021/03/24 00:46:43;;;;;;;4.97;3.52;;;;;;;0.65;74.67;100111.87;1786259;79;20973;-76
2021/03/24 00:49:13;;;;;;;4.25;3.60;;;;;;;0.68;74.84;100109.19;1801008;79;20938;-77
2021/03/24 00:51:42;;;;;;;5.83;4.42;;;;;;;0.74;74.68;100106.45;1786451;79;20925;-76
2021/03/24 00:54:11;;;;;;;11.00;6.37;;;;;;;0.76;74.77;100108.09;1818708;79;20970;-77
2021/03/24 00:56:41;;;;;;;7.17;5.67;;;;;;;0.80;74.72;100101.96;1818823;79;21424;-76
2021/03/24 00:59:09;;;;;;;7.53;6.67;;;;;;;0.82;74.61;100103.19;1819896;79;20998;-76
2021/03/24 01:01:37;;;;;;;7.33;6.22;;;;;;;0.83;74.61;100111.34;1787789;79;21489;-76
2021/03/24 01:04:07;;;;;;;8.03;4.83;;;;;;;0.85;74.74;100118.61;1801779;79;20926;-77
2021/03/24 01:06:39;;;;;;;6.58;5.17;;;;;;;0.90;74.75;100114.15;1786559;79;20926;-76
2021/03/24 01:09:09;;;;;;;8.93;5.78;;;;;;;0.92;74.79;100118.83;1818902;79;21364;-75
2021/03/24 01:11:38;;;;;;;7.50;5.70;;;;;;;0.94;75.02;100115.77;1818666;79;21037;-77
2021/03/24 01:14:07;;;;;;;7.10;5.83;;;;;;;0.99;74.88;100121.63;1818045;79;21322;-77
2021/03/24 01:16:35;;;;;;;7.30;5.50;;;;;;;0.99;74.81;100120.79;1780536;80;20905;-76
2021/03/24 01:19:04;;;;;;;7.47;6.67;;;;;;;0.99;74.86;100120.79;1852514;77;21329;-77
2021/03/24 01:21:32;;;;;;;6.72;5.75;;;;;;;1.00;75.15;100114.72;1780420;80;21332;-76
2021/03/24 01:24:00;;;;;;;8.45;6.00;;;;;;;1.05;75.19;100116.75;1852387;77;20953;-76
2021/03/24 01:26:28;;;;;;;9.10;7.65;;;;;;;1.11;75.26;100126.03;1780429;80;21012;-76
2021/03/24 01:28:58;;;;;;;8.98;7.65;;;;;;;1.16;75.27;100125.48;1852332;77;20986;-78
2021/03/24 01:31:29;;;;;;;9.73;8.63;;;;;;;1.22;75.18;100120.98;1780411;80;20928;-74
2021/03/24 01:33:59;;;;;;;12.15;10.55;;;;;;;1.26;74.97;100119.58;1852386;76;22406;-75
2021/03/24 01:36:28;;;;;;;9.65;6.92;;;;;;;1.29;74.78;100117.77;1780362;80;21645;-76
2021/03/24 01:38:55;;;;;;;8.98;7.37;;;;;;;1.29;74.69;100124.22;1852464;77;20919;-73
2021/03/24 01:41:26;;;;;;;10.25;7.87;;;;;;;1.28;74.91;100124.26;1780409;80;20955;-76
2021/03/24 01:43:56;;;;;;;9.55;7.83;;;;;;;1.27;74.99;100131.17;1852484;77;21462;-74
2021/03/24 01:46:40;;;;;;;8.65;7.50;;;;;;;1.32;75.15;100129.28;1780516;80;21202;-75
2021/03/24 01:49:25;;;;;;;12.10;9.80;;;;;;;1.36;74.91;100131.34;1852534;76;21061;-76
2021/03/24 01:52:01;;;;;;;9.93;8.88;;;;;;;1.31;74.85;100128.91;1780633;80;20908;-76
2021/03/24 01:54:39;;;;;;;8.05;7.25;;;;;;;1.28;74.93;100134.59;1852469;77;20957;-75
2021/03/24 01:57:17;;;;;;;9.28;7.15;;;;;;;1.26;75.18;100132.05;1780495;80;21520;-77
2021/03/24 01:59:45;;;;;;;10.18;7.05;;;;;;;1.28;75.14;100135.43;1852727;77;21894;-76
2021/03/24 02:02:19;;;;;;;9.33;8.15;;;;;;;1.26;75.41;100133.34;1780527;80;20921;-77
2021/03/24 02:04:49;;;;;;;8.50;7.05;;;;;;;1.32;75.58;100133.61;1852589;77;21551;-75
2021/03/24 02:07:22;;;;;;;10.53;7.97;;;;;;;1.39;75.29;100139.83;1780366;80;21505;-76
2021/03/24 02:10:11;;;;;;;10.38;8.10;;;;;;;1.42;75.26;100140.17;1852482;77;20946;-75
2021/03/24 02:12:56;;;;;;;11.00;7.60;;;;;;;1.46;75.16;100143.08;1852108;77;21571;-76
2021/03/24 02:15:27;;;;;;;;;;;;;;;1.48;75.05;100145.63;1782911;80;20960;-77
2021/03/24 02:17:56;;;;;;;7.90;7.10;;;;;;;1.49;75.07;100145.59;1789757;80;20134;-76
2021/03/24 02:20:35;;;;;;;8.58;6.95;;;;;;;1.50;75.15;100152.43;1780698;79;21356;-77
2021/03/24 02:23:12;;;;;;;10.23;7.22;;;;;;;1.54;75.18;100148.03;1814021;79;20931;-76
2021/03/24 02:25:54;;;;;;;10.80;8.48;;;;;;;1.57;75.06;100152.64;1759924;80;21377;-74
2021/03/24 02:29:21;;;;;;;11.53;10.20;;;;;;;1.65;74.90;100153.71;1813743;79;22448;-76
2021/03/24 02:31:49;;;;;;;11.45;9.25;;;;;;;1.62;74.80;100152.49;1784260;80;20942;-77
2021/03/24 02:34:22;;;;;;;12.33;8.68;;;;;;;1.61;74.60;100153.40;1784201;79;21366;-77
2021/03/24 02:36:54;;;;;;;13.88;9.68;;;;;;;1.56;74.85;100152.25;1756787;80;20938;-75
2021/03/24 02:39:25;;;;;;;11.85;9.25;;;;;;;1.59;75.06;100158.61;1726671;81;20927;-76
2021/03/24 02:41:55;;;;;;;16.02;11.30;;;;;;;1.64;75.09;100158.47;1753195;81;20985;-77
2021/03/24 02:44:24;;;;;;;16.25;11.43;;;;;;;1.67;74.83;100166.14;1726442;81;20949;-76
2021/03/24 02:46:53;;;;;;;15.43;11.28;;;;;;;1.62;74.85;100165.41;1753165;81;21376;-74
2021/03/24 02:49:25;;;;;;;15.20;12.07;;;;;;;1.61;75.06;100167.61;1753150;80;20950;-76
2021/03/24 02:51:53;;;;;;;16.30;12.15;;;;;;;1.62;75.13;100171.45;1753140;80;20918;-76
2021/03/24 02:54:24;;;;;;;17.77;12.55;;;;;;;1.59;75.25;100172.82;1753121;81;21447;-77
2021/03/24 02:56:52;;;;;;;20.50;14.18;;;;;;;1.54;75.47;100173.41;1753184;81;20923;-77
2021/03/24 02:59:20;;;;;;;17.62;13.48;;;;;;;1.47;75.84;100177.08;1753071;81;21173;-77
2021/03/24 03:02:14;;;;;;;20.02;15.65;;;;;;;1.44;76.09;100177.15;1753022;81;21006;-75
2021/03/24 03:04:52;;;;;;;17.90;14.35;;;;;;;1.41;76.40;100179.38;1753140;81;21541;-77
2021/03/24 03:07:33;;;;;;;20.30;14.87;;;;;;;1.40;76.70;100182.87;1753045;81;21547;-77
2021/03/24 03:10:16;;;;;;;19.50;14.70;;;;;;;1.43;76.81;100184.52;1753139;81;21392;-78
2021/03/24 03:13:10;;;;;;;21.27;15.65;;;;;;;1.46;76.87;100172.79;1753075;81;21427;-77
2021/03/24 03:15:45;;;;;;;20.10;15.25;;;;;;;1.49;77.04;100184.34;1752934;81;21139;-77
2021/03/24 03:18:29;;;;;;;22.30;16.05;;;;;;;1.53;77.01;100187.66;1752445;81;21017;-77
2021/03/24 03:21:01;;;;;;;19.48;15.28;;;;;;;1.54;77.01;100186.78;1732108;81;20962;-76
2021/03/24 03:23:30;;;;;;;20.45;15.95;;;;;;;1.51;77.06;100187.70;1753160;80;21589;-75
2021/03/24 03:26:12;;;;;;;22.62;16.55;;;;;;;1.47;77.19;100190.42;1753017;80;21445;-76
2021/03/24 03:28:43;;;;;;;23.20;17.67;;;;;;;1.44;77.42;100192.20;1745140;81;20927;-77
2021/03/24 03:31:16;;;;;;;22.62;16.37;;;;;;;1.45;77.65;100199.08;1740054;82;20935;-76
2021/03/24 03:33:48;;;;;;;21.35;16.15;;;;;;;1.48;77.74;100189.55;1740213;81;20963;-77
2021/03/24 03:36:17;;;;;;;20.23;15.80;;;;;;;1.50;77.73;100201.98;1740166;82;20998;-77
2021/03/24 03:38:45;;;;;;;20.05;16.23;;;;;;;1.53;77.97;100199.29;1721436;81;22751;-77
2021/03/24 03:41:15;;;;;;;21.60;15.98;;;;;;;1.56;78.05;100196.19;1739508;82;20946;-77
2021/03/24 03:43:48;;;;;;;21.82;16.50;;;;;;;1.61;78.06;100200.76;1739551;82;20958;-76
2021/03/24 03:46:19;;;;;;;20.27;16.80;;;;;;;1.68;77.98;100201.88;1739501;82;21022;-76
2021/03/24 03:48:47;;;;;;;19.42;16.60;;;;;;;1.70;77.95;100202.22;1739565;82;21554;-77
2021/03/24 03:51:41;;;;;;;20.15;17.23;;;;;;;1.75;77.88;100204.21;1739473;81;21624;-77
2021/03/24 03:54:33;;;;;;;22.15;16.95;;;;;;;1.78;77.73;100207.14;1739583;81;21002;-76
2021/03/24 03:57:11;;;;;;;19.77;16.50;;;;;;;1.80;77.69;100205.36;1739600;81;20943;-76
2021/03/24 03:59:44;;;;;;;19.12;15.35;;;;;;;1.80;77.67;100215.70;1739462;81;21046;-77
2021/03/24 04:02:14;;;;;;;19.75;16.27;;;;;;;1.83;77.71;100213.05;1739626;82;20946;-77
2021/03/24 04:04:53;;;;;;;19.10;15.55;;;;;;;1.80;77.77;100212.70;1739558;82;21358;-76
2021/03/24 04:07:53;;;;;;;19.62;15.43;;;;;;;1.83;77.83;100222.09;1721336;82;20983;-77
2021/03/24 04:10:22;;;;;;;16.90;15.10;;;;;;;1.85;77.72;100224.19;1739497;81;20947;-75
2021/03/24 04:12:51;;;;;;;18.52;15.78;;;;;;;1.82;77.70;100225.55;1739481;82;21523;-77
2021/03/24 04:15:19;;;;;;;17.65;15.45;;;;;;;1.80;77.72;100229.92;1739626;82;21006;-77
2021/03/24 04:17:53;;;;;;;18.70;15.95;;;;;;;1.78;77.77;100227.41;1739514;82;21374;-76
2021/03/24 04:20:22;;;;;;;18.90;14.63;;;;;;;1.75;77.80;100230.52;1739334;82;20982;-76
2021/03/24 04:22:51;;;;;;;15.95;13.05;;;;;;;1.71;77.93;100233.63;1697201;82;21524;-75
2021/03/24 04:25:28;;;;;;;17.00;14.85;;;;;;;1.72;78.13;100231.91;1739597;82;20915;-76
2021/03/24 04:27:56;;;;;;;17.42;13.98;;;;;;;1.71;78.15;100240.09;1739456;82;21070;-77
2021/03/24 04:30:32;;;;;;;17.92;15.05;;;;;;;1.71;78.30;100237.95;1739492;82;21363;-75
2021/03/24 04:33:01;;;;;;;16.45;14.50;;;;;;;1.72;78.42;100240.95;1739534;82;20962;-78
2021/03/24 04:35:29;;;;;;;17.17;13.48;;;;;;;1.73;78.45;100240.89;1739514;82;20990;-77
2021/03/24 04:38:00;;;;;;;16.23;13.75;;;;;;;1.74;78.44;100237.43;1720840;82;20944;-76
2021/03/24 04:40:39;;;;;;;14.83;13.03;;;;;;;1.72;78.50;100244.37;1739578;82;20982;-77
2021/03/24 04:43:16;;;;;;;14.60;13.10;;;;;;;1.70;78.57;100243.58;1738974;82;21571;-77
2021/03/24 04:45:59;;;;;;;15.00;13.13;;;;;;;1.73;78.73;100248.64;1720799;82;21103;-76
2021/03/24 04:48:34;;;;;;;13.53;11.85;;;;;;;1.75;78.75;100246.86;1739382;82;21025;-77
2021/03/24 04:51:10;;;;;;;14.30;12.78;;;;;;;1.77;78.73;100252.00;1739427;82;20943;-77
2021/03/24 04:53:42;;;;;;;16.60;13.05;;;;;;;1.76;78.70;100256.33;1739574;82;21101;-76
2021/03/24 04:56:13;;;;;;;15.40;11.97;;;;;;;1.77;78.70;100257.17;1739543;82;21377;-76
2021/03/24 04:58:44;;;;;;;14.03;11.73;;;;;;;1.77;78.66;100263.17;1739236;82;21014;-77
2021/03/24 05:01:43;;;;;;;14.20;12.70;;;;;;;1.78;78.69;100262.30;1739472;81;20934;-76
2021/03/24 05:04:55;;;;;;;12.05;10.60;;;;;;;1.79;78.68;100267.86;1739691;82;20943;-77
2021/03/24 05:07:37;;;;;;;13.38;11.38;;;;;;;1.82;78.70;100275.96;1739429;81;20943;-78
2021/03/24 05:10:09;;;;;;;13.18;11.80;;;;;;;1.82;78.70;100270.38;1739442;81;21203;-77
2021/03/24 05:12:47;;;;;;;14.85;13.30;;;;;;;1.88;78.64;100273.66;1720905;82;21002;-76
2021/03/24 05:15:26;;;;;;;14.30;11.57;;;;;;;1.98;78.46;100268.59;1777403;79;22802;-77
2021/03/24 05:17:55;;;;;;;15.80;12.80;;;;;;;1.94;78.15;100278.66;1749695;81;21037;-76
2021/03/24 05:20:37;;;;;;;14.90;12.75;;;;;;;1.92;78.11;100273.97;1749772;82;22131;-76
2021/03/24 05:23:13;;;;;;;15.23;12.63;;;;;;;1.90;78.06;100273.17;1749900;81;21058;-77
2021/03/24 05:25:46;;;;;;;12.95;11.60;;;;;;;1.91;78.15;100284.73;1747524;82;20966;-77
2021/03/24 05:28:24;;;;;;;12.78;11.48;;;;;;;1.93;78.18;100285.54;1749865;82;21353;-77
2021/03/24 05:30:55;;;;;;;17.32;14.18;;;;;;;1.98;78.32;100287.98;1722346;82;20947;-75
2021/03/24 05:33:31;;;;;;;14.75;11.90;;;;;;;2.00;78.08;100292.25;1749575;80;22117;-75
2021/03/24 05:36:15;;;;;;;16.23;13.43;;;;;;;2.02;78.02;100291.75;1749557;81;20957;-77
2021/03/24 05:38:51;;;;;;;17.90;13.10;;;;;;;2.03;77.80;100294.73;1749720;82;21349;-75
2021/03/24 05:41:37;;;;;;;16.62;14.38;;;;;;;1.97;77.65;100298.78;1749578;82;20915;-74
2021/03/24 05:44:48;;;;;;;18.77;12.80;;;;;;;1.95;77.88;100293.27;1749695;81;21446;-77
2021/03/24 05:48:02;;;;;;;16.45;11.97;;;;;;;1.95;77.84;100297.14;1749606;81;21829;-79
2021/03/24 05:50:39;;;;;;;15.80;13.50;;;;;;;1.94;77.88;100300.17;1749622;82;20946;-75
2021/03/24 05:53:24;;;;;;;15.48;13.32;;;;;;;1.94;77.80;100302.77;1749582;80;21034;-75
2021/03/24 05:55:59;;;;;;;17.55;13.95;;;;;;;1.94;77.75;100305.80;1749578;82;20939;-75
2021/03/24 05:59:00;;;;;;;16.12;13.25;;;;;;;1.93;77.65;100306.68;1749715;82;20979;-75
2021/03/24 06:01:55;;;;;;;18.45;14.63;;;;;;;1.95;77.59;100306.19;1749665;82;21201;-75
2021/03/24 06:04:36;;;;;;;14.10;12.37;;;;;;;1.94;77.71;100307.09;1749766;80;21046;-75
2021/03/24 06:08:00;;;;;;;14.70;12.10;;;;;;;1.94;77.73;100314.40;1747008;80;21019;-76
2021/03/24 06:11:01;;;;;;;18.05;13.40;;;;;;;1.95;77.76;100324.29;1749881;82;20911;-78
2021/03/24 06:14:08;;;;;;;17.20;14.18;;;;;;;1.97;78.02;100328.52;1748243;81;20971;-75
2021/03/24 06:17:11;;;;;;;16.82;13.83;;;;;;;1.97;77.60;100329.81;1736465;82;21201;-75
2021/03/24 06:20:03;;;;;;;15.72;13.28;;;;;;;1.95;77.53;100331.59;1736484;81;21441;-75
2021/03/24 06:23:28;;;;;;;14.63;12.47;;;;;;;1.94;77.47;100332.50;1712429;82;20924;-76
2021/03/24 06:26:25;;;;;;;18.37;13.05;;;;;;;1.95;77.41;100337.22;1736092;82;21019;-75
2021/03/24 06:29:28;;;;;;;15.18;13.03;;;;;;;1.88;77.64;100337.84;1735998;81;20952;-75
2021/03/24 06:32:13;;;;;;;15.90;13.32;;;;;;;1.87;77.95;100341.34;1735835;82;21354;-71
2021/03/24 06:35:21;;;;;;;17.07;14.38;;;;;;;1.92;77.79;100345.92;1735916;81;20948;-71
2021/03/24 06:38:30;;;;;;;16.97;13.72;;;;;;;1.97;77.67;100354.38;1735859;81;21359;-71
2021/03/24 06:41:26;;;;;;;15.00;11.85;;;;;;;2.01;77.57;100352.56;1735868;81;20952;-70
2021/03/24 06:44:18;;;;;;;15.03;12.18;;;;;;;2.05;77.28;100360.64;1736522;82;20959;-71
2021/03/24 06:47:06;;;;;;;12.95;10.78;;;;;;;2.05;77.20;100361.48;1736663;82;21453;-69
2021/03/24 06:50:19;;;;;;;16.42;12.35;;;;;;;2.04;76.86;100362.36;1736391;82;20960;-73
2021/03/24 06:53:33;;;;;;;15.63;11.78;;;;;;;2.03;76.85;100367.59;1735956;81;20967;-78
2021/03/24 06:56:32;;;;;;;19.35;12.90;;;;;;;2.03;76.75;100371.02;1736025;81;21493;-77
2021/03/24 06:59:27;;;;;;;13.72;11.20;;;;;;;2.06;76.53;100377.84;1735913;82;20901;-75
2021/03/24 07:02:18;;;;;;;18.35;13.10;;;;;;;2.05;76.46;100383.91;1728363;82;20983;-79
2021/03/24 07:05:16;;;;;;;15.95;13.05;;;;;;;2.02;76.47;100385.28;1731704;82;21595;-77
2021/03/24 07:08:21;;;;;;;16.57;12.35;;;;;;;2.05;76.49;100391.22;1735959;82;20936;-80
2021/03/24 07:10:55;;;;;;;15.75;12.95;;;;;;;2.10;76.45;100393.67;1736030;82;20960;-80
2021/03/24 07:13:49;;;;;;;16.90;13.98;;;;;;;2.14;76.35;100399.62;1735868;82;20948;-78
2021/03/24 07:16:38;;;;;;;19.42;14.00;;;;;;;2.15;76.30;100401.30;1735934;81;21366;-78
2021/03/24 07:19:39;;;;;;;18.52;13.83;;;;;;;2.21;76.38;100411.48;1735754;82;20956;-77
2021/03/24 07:22:58;;;;;;;16.30;12.73;;;;;;;2.20;76.37;100420.98;1735780;82;20983;-74
2021/03/24 07:25:43;;;;;;;15.20;11.83;;;;;;;2.17;76.46;100426.68;1735689;81;21039;-74
2021/03/24 07:28:34;;;;;;;12.43;11.15;;;;;;;2.11;76.66;100422.52;1736094;82;20908;-70
2021/03/24 07:31:17;;;;;;;16.48;12.35;;;;;;;2.13;76.78;100425.91;1735847;82;21315;-69
2021/03/24 07:34:03;;;;;;;16.30;11.73;;;;;;;2.15;76.79;100424.58;1735756;82;21469;-71
2021/03/24 07:36:50;;;;;;;15.65;12.10;;;;;;;2.19;76.91;100430.91;1735735;82;21042;-73
2021/03/24 07:39:44;;;;;;;16.95;13.20;;;;;;;2.22;76.68;100431.27;1735752;81;21037;-73
2021/03/24 07:42:52;;;;;;;17.87;13.03;;;;;;;2.17;76.88;100432.69;1735823;82;20945;-72
2021/03/24 07:45:48;;;;;;;15.72;12.78;;;;;;;2.22;76.77;100444.20;1735734;81;21372;-72
2021/03/24 07:48:30;;;;;;;14.50;11.08;;;;;;;2.26;76.67;100443.23;1735826;82;20991;-73
2021/03/24 07:51:25;;;;;;;19.42;12.58;;;;;;;2.26;76.60;100449.24;1735774;81;20940;-73
2021/03/24 07:54:20;;;;;;;15.77;12.30;;;;;;;2.26;76.46;100440.64;1733128;82;20939;-73
2021/03/24 07:56:58;;;;;;;14.83;12.53;;;;;;;2.26;76.42;100445.81;1735196;81;20987;-73
2021/03/24 08:00:11;;;;;;;16.15;12.45;;;;;;;2.33;76.37;100453.80;1845952;76;22791;-73
2021/03/24 08:03:01;;;;;;;16.80;12.23;;;;;;;2.34;76.22;100457.26;1818058;78;20970;-74
2021/03/24 08:05:54;;;;;;;16.82;13.30;;;;;;;2.34;76.05;100463.27;1818110;79;21567;-75
2021/03/24 08:08:48;;;;;;;16.35;12.45;;;;;;;2.30;76.13;100459.53;1816875;79;20944;-73
2021/03/24 08:11:50;;;;;;;16.30;13.10;;;;;;;2.27;76.26;100458.72;1818611;78;21018;-75
2021/03/24 08:14:43;;;;;;;18.07;12.63;;;;;;;2.32;76.53;100467.64;1818333;78;21002;-74
2021/03/24 08:17:49;;;;;;;20.57;13.62;;;;;;;2.38;76.45;100458.84;1818180;78;20950;-74
2021/03/24 08:20:38;;;;;;;19.57;14.58;;;;;;;2.36;76.78;100466.67;1818051;79;22267;-75
2021/03/24 08:23:18;;;;;;;19.57;14.60;;;;;;;2.32;76.89;100474.11;1817906;77;20985;-74
2021/03/24 08:26:03;;;;;;;16.97;13.65;;;;;;;2.33;76.89;100475.79;1817916;78;20967;-73
2021/03/24 08:29:00;;;;;;;17.07;14.15;;;;;;;2.36;76.99;100474.88;1818095;79;20926;-73
2021/03/24 08:32:12;;;;;;;16.82;12.85;;;;;;;2.35;77.01;100475.30;1817876;79;20939;-74
2021/03/24 08:35:33;;;;;;;18.05;15.48;;;;;;;2.36;77.24;100473.14;1817927;78;22418;-74
2021/03/24 08:38:19;;;;;;;20.57;15.35;;;;;;;2.36;77.40;100469.25;1817715;79;20951;-75
2021/03/24 08:41:31;;;;;;;22.70;16.02;;;;;;;2.37;77.44;100472.69;1817928;78;20979;-74
2021/03/24 08:44:12;;;;;;;18.60;15.18;;;;;;;2.33;77.52;100465.44;1817860;79;21006;-74
2021/03/24 08:46:48;;;;;;;17.85;15.15;;;;;;;2.33;77.62;100478.83;1817965;77;21022;-75
2021/03/24 08:49:21;;;;;;;18.98;15.08;;;;;;;2.30;77.88;100469.42;1817949;78;21037;-76
2021/03/24 08:52:00;;;;;;;20.10;15.18;;;;;;;2.30;78.00;100473.75;1817809;78;21092;-74
2021/03/24 08:55:19;;;;;;;23.35;16.10;;;;;;;2.31;77.95;100470.27;1817956;78;20990;-75
2021/03/24 08:58:10;;;;;;;22.37;17.20;;;;;;;2.32;77.98;100471.52;1817795;77;21009;-75
2021/03/24 09:01:05;;;;;;;24.65;18.17;;;;;;;2.35;77.97;100472.72;1818028;79;21551;-74
2021/03/24 09:04:00;;;;;;;19.67;13.50;;;;;;;2.35;77.82;100468.84;1818286;77;22688;-75
2021/03/24 09:06:42;;;;;;;20.75;16.32;;;;;;;2.36;77.85;100466.67;1786836;79;21041;-75
2021/03/24 09:09:32;;;;;;;20.25;15.65;;;;;;;2.35;77.87;100466.25;1817332;79;20986;-79
2021/03/24 09:12:25;;;;;;;18.65;15.43;;;;;;;2.34;78.12;100463.73;1817287;79;20943;-74
2021/03/24 09:15:21;;;;;;;20.20;14.70;;;;;;;2.38;78.26;100475.23;1848248;76;22662;-79
2021/03/24 09:18:01;;;;;;;21.60;17.32;;;;;;;2.32;78.16;100468.94;1813997;79;20943;-75
2021/03/24 09:21:13;;;;;;;22.10;17.32;;;;;;;2.28;78.29;100479.80;1817634;77;21654;-77
2021/03/24 09:24:13;;;;;;;24.25;17.75;;;;;;;2.25;78.35;100472.59;1763854;79;20994;-77
2021/03/24 09:27:09;;;;;;;24.02;17.48;;;;;;;2.23;78.32;100475.22;1819135;79;21006;-79
2021/03/24 09:29:48;;;;;;;21.82;17.32;;;;;;;2.20;78.42;100471.85;1818039;79;20907;-79
2021/03/24 09:32:35;;;;;;;20.30;16.10;;;;;;;2.23;78.32;100467.45;1817880;77;21396;-81
2021/03/24 09:35:31;;;;;;;20.32;17.42;;;;;;;2.24;78.27;100468.30;1818044;79;21431;-77
2021/03/24 09:38:12;;;;;;;27.50;19.25;;;;;;;2.25;78.18;100476.48;1817894;79;20931;-79
2021/03/24 09:40:51;;;;;;;23.60;18.17;;;;;;;2.26;78.05;100476.86;1818158;79;20949;-78
2021/03/24 09:43:29;;;;;;;27.70;19.80;;;;;;;2.28;77.84;100473.34;1818128;77;20926;-78
2021/03/24 09:46:04;;;;;;;20.72;16.12;;;;;;;2.30;77.77;100472.01;1818173;77;21329;-82
2021/03/24 09:48:56;;;;;;;21.00;15.75;;;;;;;2.30;77.49;100478.48;1818016;79;22373;-80
2021/03/24 09:51:31;;;;;;;23.77;17.20;;;;;;;2.30;77.28;100480.23;1818085;78;20990;-80
2021/03/24 09:54:16;;;;;;;17.07;14.13;;;;;;;2.27;77.45;100483.30;1818118;79;20942;-78
2021/03/24 09:56:50;;;;;;;22.17;15.25;;;;;;;2.33;77.30;100484.01;1817957;79;21009;-77
2021/03/24 09:59:42;;;;;;;20.55;15.30;;;;;;;2.35;76.90;100486.11;1815365;79;20943;-80
2021/03/24 10:02:21;;;;;;;22.10;16.02;;;;;;;2.39;76.72;100485.14;1818386;79;20938;-81
2021/03/24 10:04:54;;;;;;;22.55;15.00;;;;;;;2.43;76.45;100494.52;1818200;79;20939;-76
2021/03/24 10:07:25;;;;;;;21.57;16.20;;;;;;;2.42;76.25;100480.73;1818514;79;20919;-74
2021/03/24 10:10:15;;;;;;;17.87;14.78;;;;;;;2.45;76.28;100488.40;1819415;79;21484;-75
2021/03/24 10:13:15;;;;;;;19.60;13.38;;;;;;;2.47;75.65;100486.61;1817943;77;20982;-75
2021/03/24 10:15:55;;;;;;;15.65;12.73;;;;;;;2.48;75.83;100484.87;1816048;79;21177;-77
2021/03/24 10:18:40;;;;;;;18.07;15.08;;;;;;;2.49;75.96;100489.17;1817859;78;21029;-73
2021/03/24 10:21:19;;;;;;;23.25;16.40;;;;;;;2.47;76.03;100478.85;1818005;79;21389;-76
2021/03/24 10:23:55;;;;;;;18.67;15.10;;;;;;;2.48;75.46;100487.45;1817847;77;21754;-73
2021/03/24 10:26:33;;;;;;;18.85;15.60;;;;;;;2.52;75.10;100486.94;1817321;79;20986;-74
2021/03/24 10:29:13;;;;;;;17.65;13.22;;;;;;;2.55;75.24;100478.61;1817329;79;21515;-75
2021/03/24 10:31:47;;;;;;;18.77;15.08;;;;;;;2.61;75.03;100475.02;1817405;79;21385;-75
2021/03/24 10:34:27;;;;;;;18.32;14.65;;;;;;;2.66;74.55;100462.77;1817356;79;20979;-75
2021/03/24 10:37:08;;;;;;;16.93;13.05;;;;;;;2.72;74.40;100465.64;1817077;79;20994;-74
2021/03/24 10:40:00;;;;;;;18.60;13.83;;;;;;;2.75;73.90;100466.38;1817320;79;20963;-74
2021/03/24 10:43:01;;;;;;;19.60;14.53;;;;;;;2.73;73.31;100449.20;1817297;77;22380;-73
2021/03/24 10:45:50;;;;;;;20.27;15.00;;;;;;;2.67;73.04;100445.06;1817263;77;20930;-73
2021/03/24 10:48:30;;;;;;;17.00;14.07;;;;;;;2.65;72.99;100454.62;1817387;79;20935;-75
2021/03/24 10:51:12;;;;;;;17.17;14.80;;;;;;;2.64;72.77;100451.16;1786028;79;21499;-72
2021/03/24 10:53:41;;;;;;;17.95;13.20;;;;;;;2.68;72.62;100453.22;1817301;79;20939;-74
2021/03/24 10:56:27;;;;;;;19.75;15.35;;;;;;;2.69;72.72;100452.31;1817337;77;21479;-73
2021/03/24 10:59:35;;;;;;;17.02;14.30;;;;;;;2.69;72.52;100449.30;1817279;77;20986;-73
2021/03/24 11:02:13;;;;;;;21.05;16.50;;;;;;;2.68;71.92;100457.94;1818321;78;21005;-72
2021/03/24 11:05:05;;;;;;;16.75;13.60;;;;;;;2.68;71.86;100455.80;1817695;79;21456;-72
2021/03/24 11:07:47;;;;;;;16.57;13.62;;;;;;;2.69;72.08;100469.14;1817475;79;20970;-72
2021/03/24 11:11:00;;;;;;;17.98;13.70;;;;;;;2.67;71.72;100467.07;1817382;78;21415;-71
2021/03/24 11:13:41;;;;;;;17.27;13.98;;;;;;;2.64;72.01;100458.92;1798951;78;20947;-76
2021/03/24 11:16:19;;;;;;;19.73;13.95;;;;;;;2.60;72.18;100466.83;1816611;79;20986;-76
2021/03/24 11:18:49;;;;;;;18.20;13.75;;;;;;;2.58;72.39;100467.31;1817283;79;21001;-78
2021/03/24 11:21:30;;;;;;;19.67;15.45;;;;;;;2.57;72.37;100466.48;1817316;78;20918;-73
2021/03/24 11:24:19;;;;;;;20.40;16.35;;;;;;;2.61;72.38;100469.84;1817274;78;21236;-78
2021/03/24 11:27:15;;;;;;;20.70;14.98;;;;;;;2.63;72.27;100470.19;1816094;77;21337;-77
2021/03/24 11:30:11;;;;;;;16.60;14.60;;;;;;;2.69;71.97;100473.02;1873952;75;27419;-77
2021/03/24 11:33:12;;;;;;;20.37;15.63;;;;;;;2.69;72.15;100470.01;1845579;77;26872;-76
2021/03/24 11:36:19;;;;;;;19.62;14.83;;;;;;;2.71;71.66;100482.89;1851404;77;21131;-75
2021/03/24 11:39:16;;;;;;;21.27;14.75;;;;;;;2.73;71.58;100491.46;1860909;77;21312;-76
2021/03/24 11:41:45;;;;;;;19.65;15.28;;;;;;;2.70;71.55;100493.70;1860962;77;21574;-75
2021/03/24 11:44:20;;;;;;;17.25;14.07;;;;;;;2.72;71.50;100491.53;1860872;77;21426;-79
2021/03/24 11:47:00;;;;;;;15.95;13.13;;;;;;;2.67;71.22;100490.38;1861036;77;21328;-77
2021/03/24 11:50:11;;;;;;;15.20;12.68;;;;;;;2.65;71.23;100493.45;1860911;77;22294;-79
2021/03/24 11:53:24;;;;;;;21.62;15.83;;;;;;;2.66;71.40;100499.02;1860836;77;20899;-78
2021/03/24 11:56:11;;;;;;;19.20;15.18;;;;;;;2.71;71.45;100506.19;1825080;77;21049;-78
2021/03/24 11:58:48;;;;;;;21.07;15.45;;;;;;;2.74;71.30;100495.77;1860994;77;21301;-78
2021/03/24 12:01:31;;;;;;;20.92;15.35;;;;;;;2.73;71.16;100495.34;1861051;77;21348;-77
2021/03/24 12:04:44;;;;;;;20.88;15.10;;;;;;;2.71;71.06;100507.48;1860887;77;21800;-77
2021/03/24 12:07:25;;;;;;;17.20;13.58;;;;;;;2.72;71.17;100501.43;1860977;77;20990;-82
2021/03/24 12:10:23;;;;;;;16.57;12.88;;;;;;;2.73;71.08;100513.47;1861083;77;21093;-82
2021/03/24 12:13:20;;;;;;;20.17;16.00;;;;;;;2.72;71.27;100508.36;1860948;77;21060;-79
2021/03/24 12:16:11;;;;;;;21.17;15.70;;;;;;;2.68;71.39;100507.13;1860921;77;20929;-82
2021/03/24 12:18:53;;;;;;;19.73;16.30;;;;;;;2.66;71.55;100508.08;1861201;77;21800;-81
2021/03/24 12:21:34;;;;;;;19.92;15.13;;;;;;;2.63;71.65;100510.77;1861100;77;21018;-81
2021/03/24 12:24:27;;;;;;;21.02;14.95;;;;;;;2.63;71.64;100505.59;1860921;77;20970;-80
2021/03/24 12:27:17;;;;;;;20.88;14.45;;;;;;;2.62;71.61;100520.70;1851518;77;21479;-79
2021/03/24 12:30:03;;;;;;;23.32;15.93;;;;;;;2.64;71.72;100510.70;1859087;77;20986;-80
2021/03/24 12:32:36;;;;;;;21.45;15.60;;;;;;;2.67;71.45;100502.86;1858806;77;21318;-79